createdAt,value
2022-08-07T00:01:12.516Z,101484.69
2022-08-07T00:06:29.468Z,101485.25
2022-08-07T00:11:35.919Z,101482.50
2022-08-07T00:16:52.115Z,101480.19
2022-08-07T00:21:56.009Z,101478.94
2022-08-07T00:27:07.295Z,101478.13
2022-08-07T00:32:13.952Z,101474.56
2022-08-07T00:37:16.829Z,101475.53
2022-08-07T00:42:19.353Z,101480.75
2022-08-07T00:48:07.531Z,101459.16
2022-08-07T00:52:55.792Z,101473.72
2022-08-07T00:57:58.358Z,101457.47
2022-08-07T01:03:02.332Z,101452.63
2022-08-07T01:08:05.370Z,101462.09
2022-08-07T01:13:11.879Z,101457.38
2022-08-07T01:18:21.063Z,101455.38
2022-08-07T01:23:35.727Z,101451.28
2022-08-07T01:28:46.336Z,101451.00
2022-08-07T01:33:55.956Z,101464.34
2022-08-07T01:39:01.285Z,101451.97
2022-08-07T01:44:07.445Z,101460.25
2022-08-07T01:49:11.938Z,101464.66
2022-08-07T01:54:36.887Z,101457.16
2022-08-07T01:59:45.238Z,101465.56
2022-08-07T02:04:55.743Z,101465.34
2022-08-07T02:10:02.576Z,101453.59
2022-08-07T02:15:07.132Z,101453.53
2022-08-07T02:20:19.740Z,101458.81
2022-08-07T02:25:47.231Z,101453.06
2022-08-07T02:30:53.318Z,101457.25
2022-08-07T02:36:30.419Z,101453.28
2022-08-07T02:41:21.787Z,101445.19
2022-08-07T02:46:26.979Z,101456.63
2022-08-07T02:51:42.449Z,101451.97
2022-08-07T02:56:55.779Z,101454.91
2022-08-07T03:02:02.275Z,101447.88
2022-08-07T03:07:10.331Z,101450.84
2022-08-07T03:12:22.591Z,101454.28
2022-08-07T03:17:36.368Z,101444.69
2022-08-07T03:22:58.553Z,101440.72
2022-08-07T03:28:37.001Z,101449.34
2022-08-07T03:33:26.494Z,101441.53
2022-08-07T03:38:35.784Z,101436.22
2022-08-07T03:43:40.284Z,101430.91
2022-08-07T03:49:02.917Z,101443.56
2022-08-07T03:54:35.798Z,101437.03
2022-08-07T03:59:30.184Z,101437.72
2022-08-07T04:04:32.980Z,101440.06
2022-08-07T04:09:45.570Z,101445.91
2022-08-07T04:14:55.158Z,101445.84
2022-08-07T04:19:58.823Z,101443.41
2022-08-07T04:25:02.270Z,101443.50
2022-08-07T04:30:11.699Z,101449.22
2022-08-07T04:35:23.651Z,101454.09
2022-08-07T04:40:29.585Z,101447.59
2022-08-07T04:45:58.138Z,101440.53
2022-08-07T04:51:09.492Z,101452.34
2022-08-07T04:58:13.257Z,101456.44
2022-08-07T05:01:58.435Z,101464.16
2022-08-07T05:07:20.343Z,101455.66
2022-08-07T05:12:30.511Z,101463.56
2022-08-07T05:17:52.096Z,101472.56
2022-08-07T05:23:00.647Z,101469.69
2022-08-07T05:28:20.710Z,101466.03
2022-08-07T05:33:29.513Z,101469.59
2022-08-07T05:38:59.823Z,101469.19
2022-08-07T05:44:11.738Z,101471.75
2022-08-07T05:49:17.290Z,101474.78
2022-08-07T05:54:43.984Z,101470.75
2022-08-07T05:59:55.787Z,101475.16
2022-08-07T06:05:05.898Z,101471.63
2022-08-07T06:10:15.177Z,101471.09
2022-08-07T06:15:20.328Z,101468.81
2022-08-07T06:20:50.044Z,101473.56
2022-08-07T06:25:54.859Z,101466.72
2022-08-07T06:30:59.660Z,101471.31
2022-08-07T06:36:11.725Z,101472.06
2022-08-07T06:41:29.429Z,101478.59
2022-08-07T06:46:42.581Z,101475.84
2022-08-07T06:51:49.920Z,101482.44
2022-08-07T06:56:55.005Z,101467.47
2022-08-07T07:01:58.764Z,101477.69
2022-08-07T07:07:10.726Z,101468.19
2022-08-07T07:12:36.265Z,101466.94
2022-08-07T07:17:50.490Z,101461.31
2022-08-07T07:24:11.295Z,101457.34
2022-08-07T07:28:42.825Z,101456.84
2022-08-07T07:33:54.968Z,101453.78
2022-08-07T07:39:03.369Z,101452.25
2022-08-07T07:44:16.984Z,101441.97
2022-08-07T07:50:34.143Z,101439.50
2022-08-07T07:54:52.343Z,101432.88
2022-08-07T07:59:56.134Z,101428.91
2022-08-07T08:05:03.817Z,101426.91
2022-08-07T08:10:10.073Z,101423.31
2022-08-07T08:15:17.661Z,101428.88
2022-08-07T08:20:31.938Z,101426.84
2022-08-07T08:25:56.733Z,101421.06
2022-08-07T08:31:02.761Z,101417.66
2022-08-07T08:36:09.703Z,101411.63
2022-08-07T08:41:22.479Z,101414.28
2022-08-07T08:46:32.908Z,101409.84
2022-08-07T08:52:12.873Z,101401.72
2022-08-07T08:57:08.143Z,101398.59
2022-08-07T09:02:18.935Z,101398.75
2022-08-07T09:07:57.999Z,101398.44
2022-08-07T09:13:09.522Z,101392.38
2022-08-07T09:18:27.834Z,101394.00
2022-08-07T09:24:35.109Z,101391.19
2022-08-07T09:30:03.367Z,101377.69
2022-08-07T09:34:55.994Z,101377.13
2022-08-07T09:40:05.839Z,101376.53
2022-08-07T09:46:28.730Z,101375.91
2022-08-07T09:50:51.537Z,101357.84
2022-08-07T09:56:13.862Z,101358.69
2022-08-07T10:01:51.019Z,101342.81
2022-08-07T10:07:39.786Z,101341.91
2022-08-07T10:13:55.135Z,101332.03
2022-08-07T10:18:52.981Z,101318.41
2022-08-07T10:24:18.644Z,101308.56
2022-08-07T10:29:45.808Z,101310.78
2022-08-07T10:35:14.932Z,101298.00
2022-08-07T10:40:30.309Z,101276.41
2022-08-07T10:45:57.328Z,101281.97
2022-08-07T10:51:16.574Z,101281.31
2022-08-07T10:56:42.114Z,101266.34
2022-08-07T11:02:05.064Z,101262.59
2022-08-07T11:07:59.565Z,101244.19
2022-08-07T11:13:02.038Z,101247.13
2022-08-07T11:18:09.657Z,101235.25
2022-08-07T11:23:30.450Z,101232.91
2022-08-07T11:28:55.200Z,101214.38
2022-08-07T11:34:06.290Z,101217.94
2022-08-07T11:40:00.557Z,101231.09
2022-08-07T11:44:58.178Z,101214.66
2022-08-07T11:50:31.377Z,101201.44
2022-08-07T11:56:11.990Z,101205.53
2022-08-07T12:02:00.835Z,101201.00
2022-08-07T12:07:09.047Z,101194.94
2022-08-07T12:12:33.079Z,101182.44
2022-08-07T12:17:58.630Z,101180.19
2022-08-07T12:24:07.503Z,101178.94
2022-08-07T12:29:12.834Z,101164.97
2022-08-07T12:34:19.688Z,101166.16
2022-08-07T12:39:43.949Z,101171.66
2022-08-07T12:44:51.310Z,101170.19
2022-08-07T12:50:04.906Z,101151.06
2022-08-07T12:55:40.566Z,101152.72
2022-08-07T13:00:56.710Z,101143.09
2022-08-07T13:06:21.514Z,101137.94
2022-08-07T13:12:02.253Z,101139.31
2022-08-07T13:17:07.078Z,101131.25
2022-08-07T13:22:19.766Z,101131.38
2022-08-07T13:28:12.531Z,101129.03
2022-08-07T13:34:14.903Z,101116.84
2022-08-07T13:38:41.895Z,101123.78
2022-08-07T13:43:52.846Z,101120.97
2022-08-07T13:49:01.941Z,101104.59
2022-08-07T13:54:08.336Z,101104.13
2022-08-07T13:59:22.437Z,101091.25
2022-08-07T14:04:29.939Z,101090.28
2022-08-07T14:10:14.942Z,101088.19
2022-08-07T14:15:09.213Z,101088.00
2022-08-07T14:20:41.675Z,101089.31
2022-08-07T14:25:48.216Z,101086.72
2022-08-07T14:30:52.260Z,101055.03
2022-08-07T14:36:00.658Z,101071.81
2022-08-07T14:46:33.174Z,101069.03
2022-08-07T14:52:05.006Z,101058.03
2022-08-07T14:57:06.519Z,101059.09
2022-08-07T15:02:32.936Z,101060.06
2022-08-07T15:07:47.394Z,101057.44
2022-08-07T15:12:58.174Z,101050.44
2022-08-07T15:18:05.331Z,101050.41
2022-08-07T15:25:14.831Z,101043.28
2022-08-07T15:28:59.650Z,101045.69
2022-08-07T15:34:19.070Z,101035.81
2022-08-07T15:39:25.869Z,101048.81
2022-08-07T15:44:40.965Z,101041.28
2022-08-07T15:50:04.282Z,101036.59
2022-08-07T15:55:14.466Z,101030.44
2022-08-07T16:00:32.196Z,101019.31
2022-08-07T16:05:39.307Z,101014.25
2022-08-07T16:10:48.716Z,101016.94
2022-08-07T16:16:03.498Z,101011.66
2022-08-07T16:21:44.113Z,101010.56
2022-08-07T16:26:59.190Z,101010.22
2022-08-07T16:32:06.011Z,100997.88
2022-08-07T16:38:06.628Z,101005.69
2022-08-07T16:43:18.281Z,101007.97
2022-08-07T16:50:26.771Z,101015.44
2022-08-07T16:54:35.236Z,101018.22
2022-08-07T16:59:51.672Z,101007.22
2022-08-07T17:05:06.389Z,100996.59
2022-08-07T17:10:32.161Z,101008.66
2022-08-07T17:15:44.778Z,101011.03
2022-08-07T17:20:55.785Z,101002.72
2022-08-07T17:26:23.324Z,101007.25
2022-08-07T17:32:02.514Z,101007.44
2022-08-07T17:38:11.316Z,101010.03
2022-08-07T17:42:59.767Z,101015.09
2022-08-07T17:48:11.243Z,101009.66
2022-08-07T17:54:01.667Z,101004.47
2022-08-07T17:59:01.030Z,101013.56
2022-08-07T18:04:16.715Z,101008.09
2022-08-07T18:10:06.647Z,101008.63
2022-08-07T18:14:50.838Z,101014.25
2022-08-07T18:21:09.408Z,101012.00
2022-08-07T18:25:40.536Z,101012.22
2022-08-07T18:30:59.361Z,101025.59
2022-08-07T18:36:15.965Z,101029.00
2022-08-07T18:41:45.371Z,101029.31
2022-08-07T18:47:00.045Z,101030.56
2022-08-07T18:52:54.171Z,101045.09
2022-08-07T18:58:20.621Z,101049.19
2022-08-07T19:03:37.643Z,101057.31
2022-08-07T19:08:58.655Z,101055.16
2022-08-07T19:14:19.854Z,101054.69
2022-08-07T19:19:32.972Z,101071.09
2022-08-07T19:24:43.526Z,101079.59
2022-08-07T19:31:03.117Z,101082.00
2022-08-07T19:35:17.697Z,101086.59
2022-08-07T19:40:30.845Z,101087.28
2022-08-07T19:46:05.977Z,101086.34
2022-08-07T19:51:19.558Z,101097.41
2022-08-07T19:57:51.782Z,101092.25
2022-08-07T20:01:57.618Z,101103.13
2022-08-07T20:07:01.677Z,101114.44
2022-08-07T20:12:34.504Z,101112.97
2022-08-07T20:17:32.853Z,101126.03
2022-08-07T20:22:45.525Z,101128.00
2022-08-07T20:27:58.463Z,101119.28
2022-08-07T20:33:08.966Z,101127.31
2022-08-07T20:38:29.883Z,101134.41
2022-08-07T20:43:35.990Z,101140.47
2022-08-07T20:49:53.881Z,101126.13
2022-08-07T20:54:30.164Z,101133.84
2022-08-07T21:00:06.702Z,101130.69
2022-08-07T21:05:04.491Z,101128.38
2022-08-07T21:10:18.389Z,101134.16
2022-08-07T21:15:47.933Z,101132.13
2022-08-07T21:20:59.405Z,101121.72
2022-08-07T21:26:07.590Z,101128.50
2022-08-07T21:31:15.534Z,101131.03
2022-08-07T21:36:31.281Z,101132.06
2022-08-07T21:41:59.791Z,101130.34
2022-08-07T21:47:12.465Z,101132.81
2022-08-07T21:52:30.581Z,101139.16
2022-08-07T21:57:52.642Z,101147.09
2022-08-07T22:03:05.543Z,101156.41
2022-08-07T22:08:10.505Z,101150.44
2022-08-07T22:13:15.910Z,101156.09
2022-08-07T22:18:24.927Z,101156.28
2022-08-07T22:23:33.886Z,101149.56
2022-08-07T22:28:53.431Z,101154.91
2022-08-07T22:34:05.427Z,101155.34
2022-08-07T22:39:14.135Z,101142.88
2022-08-07T22:44:23.465Z,101143.22
2022-08-07T22:49:54.297Z,101143.31
2022-08-07T22:55:30.080Z,101144.50
2022-08-07T23:00:40.618Z,101133.59
2022-08-07T23:06:14.792Z,101139.41
2022-08-07T23:11:45.803Z,101147.72
2022-08-07T23:17:03.939Z,101150.00
2022-08-07T23:22:23.620Z,101145.44
2022-08-07T23:28:21.983Z,101145.72
2022-08-07T23:34:34.909Z,101145.06
2022-08-07T23:39:21.995Z,101146.75
2022-08-07T23:44:41.782Z,101142.31
2022-08-07T23:50:07.857Z,101150.16
2022-08-07T23:55:52.547Z,101151.38
